sensor_id;sensor_type;location;lat;lon;timestamp;P1;durP1;ratioP1;P2;durP2;ratioP2
73733;SDS011;62039;50.000;9.064;2023-08-17T00:00:23;1.93;;;1.27;;
73733;SDS011;62039;50.000;9.064;2023-08-17T00:02:50;2.50;;;1.60;;
73733;SDS011;62039;50.000;9.064;2023-08-17T00:05:17;2.30;;;1.53;;
73733;SDS011;62039;50.000;9.064;2023-08-17T00:07:47;1.93;;;1.40;;
73733;SDS011;62039;50.000;9.064;2023-08-17T00:10:14;1.50;;;1.40;;
73733;SDS011;62039;50.000;9.064;2023-08-17T00:12:41;2.03;;;1.20;;
73733;SDS011;62039;50.000;9.064;2023-08-17T00:15:09;1.57;;;1.47;;
73733;SDS011;62039;50.000;9.064;2023-08-17T00:17:36;1.83;;;1.73;;
73733;SDS011;62039;50.000;9.064;2023-08-17T00:20:03;2.77;;;2.23;;
73733;SDS011;62039;50.000;9.064;2023-08-17T00:22:31;1.80;;;1.70;;
73733;SDS011;62039;50.000;9.064;2023-08-17T00:25:01;2.13;;;1.93;;
73733;SDS011;62039;50.000;9.064;2023-08-17T00:27:28;2.57;;;2.03;;
73733;SDS011;62039;50.000;9.064;2023-08-17T00:29:55;2.20;;;2.00;;
73733;SDS011;62039;50.000;9.064;2023-08-17T00:32:22;3.23;;;2.20;;
73733;SDS011;62039;50.000;9.064;2023-08-17T00:34:49;3.30;;;2.47;;
73733;SDS011;62039;50.000;9.064;2023-08-17T00:37:16;2.20;;;2.00;;
73733;SDS011;62039;50.000;9.064;2023-08-17T00:39:43;1.70;;;1.60;;
73733;SDS011;62039;50.000;9.064;2023-08-17T00:42:12;1.50;;;0.97;;
73733;SDS011;62039;50.000;9.064;2023-08-17T00:44:39;1.17;;;0.80;;
73733;SDS011;62039;50.000;9.064;2023-08-17T00:47:06;1.03;;;0.93;;
73733;SDS011;62039;50.000;9.064;2023-08-17T00:49:34;1.10;;;0.90;;
73733;SDS011;62039;50.000;9.064;2023-08-17T00:52:01;1.50;;;0.87;;
73733;SDS011;62039;50.000;9.064;2023-08-17T00:54:28;1.03;;;0.93;;
73733;SDS011;62039;50.000;9.064;2023-08-17T00:56:56;0.70;;;0.60;;
73733;SDS011;62039;50.000;9.064;2023-08-17T00:59:26;1.27;;;0.80;;
73733;SDS011;62039;50.000;9.064;2023-08-17T01:01:55;1.10;;;0.80;;
73733;SDS011;62039;50.000;9.064;2023-08-17T01:04:22;2.03;;;1.00;;
73733;SDS011;62039;50.000;9.064;2023-08-17T01:06:49;1.13;;;0.77;;
73733;SDS011;62039;50.000;9.064;2023-08-17T01:09:16;1.50;;;1.13;;
73733;SDS011;62039;50.000;9.064;2023-08-17T01:11:45;1.63;;;0.80;;
73733;SDS011;62039;50.000;9.064;2023-08-17T01:14:17;1.40;;;0.70;;
73733;SDS011;62039;50.000;9.064;2023-08-17T01:16:55;1.03;;;0.90;;
73733;SDS011;62039;50.000;9.064;2023-08-17T01:19:27;0.93;;;0.80;;
73733;SDS011;62039;50.000;9.064;2023-08-17T01:22:03;1.13;;;0.73;;
73733;SDS011;62039;50.000;9.064;2023-08-17T01:24:34;1.67;;;0.90;;
73733;SDS011;62039;50.000;9.064;2023-08-17T01:27:01;1.10;;;0.60;;
73733;SDS011;62039;50.000;9.064;2023-08-17T01:29:28;1.47;;;0.70;;
73733;SDS011;62039;50.000;9.064;2023-08-17T01:31:57;1.87;;;0.93;;
73733;SDS011;62039;50.000;9.064;2023-08-17T01:34:31;1.23;;;0.90;;
73733;SDS011;62039;50.000;9.064;2023-08-17T01:37:01;0.77;;;0.70;;
73733;SDS011;62039;50.000;9.064;2023-08-17T01:39:36;0.70;;;0.70;;
73733;SDS011;62039;50.000;9.064;2023-08-17T01:42:04;1.30;;;0.90;;
73733;SDS011;62039;50.000;9.064;2023-08-17T01:44:33;1.40;;;0.90;;
73733;SDS011;62039;50.000;9.064;2023-08-17T01:47:00;1.90;;;1.13;;
73733;SDS011;62039;50.000;9.064;2023-08-17T01:49:27;1.33;;;0.90;;
73733;SDS011;62039;50.000;9.064;2023-08-17T01:51:53;2.47;;;0.87;;
73733;SDS011;62039;50.000;9.064;2023-08-17T01:54:20;1.43;;;1.00;;
73733;SDS011;62039;50.000;9.064;2023-08-17T01:56:51;1.23;;;1.00;;
73733;SDS011;62039;50.000;9.064;2023-08-17T01:59:17;1.97;;;0.90;;
73733;SDS011;62039;50.000;9.064;2023-08-17T02:01:44;2.07;;;0.97;;
73733;SDS011;62039;50.000;9.064;2023-08-17T02:04:11;1.00;;;0.90;;
73733;SDS011;62039;50.000;9.064;2023-08-17T02:06:38;0.80;;;0.70;;
73733;SDS011;62039;50.000;9.064;2023-08-17T02:09:05;1.13;;;0.80;;
73733;SDS011;62039;50.000;9.064;2023-08-17T02:11:32;2.53;;;0.80;;
73733;SDS011;62039;50.000;9.064;2023-08-17T02:14:02;3.33;;;0.97;;
73733;SDS011;62039;50.000;9.064;2023-08-17T02:16:29;1.03;;;1.00;;
73733;SDS011;62039;50.000;9.064;2023-08-17T02:18:56;1.70;;;1.00;;
73733;SDS011;62039;50.000;9.064;2023-08-17T02:21:23;1.77;;;0.90;;
73733;SDS011;62039;50.000;9.064;2023-08-17T02:23:50;1.43;;;0.90;;
73733;SDS011;62039;50.000;9.064;2023-08-17T02:26:17;1.27;;;0.90;;
73733;SDS011;62039;50.000;9.064;2023-08-17T02:28:44;1.50;;;0.90;;
73733;SDS011;62039;50.000;9.064;2023-08-17T02:31:13;1.27;;;0.97;;
73733;SDS011;62039;50.000;9.064;2023-08-17T02:33:40;2.60;;;0.90;;
73733;SDS011;62039;50.000;9.064;2023-08-17T02:36:07;0.80;;;0.80;;
73733;SDS011;62039;50.000;9.064;2023-08-17T02:38:34;0.80;;;0.80;;
73733;SDS011;62039;50.000;9.064;2023-08-17T02:41:01;1.90;;;1.17;;
73733;SDS011;62039;50.000;9.064;2023-08-17T02:43:28;1.67;;;1.50;;
73733;SDS011;62039;50.000;9.064;2023-08-17T02:45:55;2.03;;;1.83;;
73733;SDS011;62039;50.000;9.064;2023-08-17T02:48:25;3.37;;;2.20;;
73733;SDS011;62039;50.000;9.064;2023-08-17T02:50:52;1.90;;;1.80;;
73733;SDS011;62039;50.000;9.064;2023-08-17T02:53:19;3.37;;;2.73;;
73733;SDS011;62039;50.000;9.064;2023-08-17T02:55:46;3.50;;;2.57;;
73733;SDS011;62039;50.000;9.064;2023-08-17T02:58:13;2.70;;;2.50;;
73733;SDS011;62039;50.000;9.064;2023-08-17T03:00:40;3.03;;;2.50;;
73733;SDS011;62039;50.000;9.064;2023-08-17T03:03:06;3.37;;;2.53;;
73733;SDS011;62039;50.000;9.064;2023-08-17T03:05:36;2.37;;;2.17;;
73733;SDS011;62039;50.000;9.064;2023-08-17T03:08:04;3.10;;;2.23;;
73733;SDS011;62039;50.000;9.064;2023-08-17T03:10:32;3.30;;;2.57;;
73733;SDS011;62039;50.000;9.064;2023-08-17T03:12:59;3.90;;;2.27;;
73733;SDS011;62039;50.000;9.064;2023-08-17T03:15:26;2.73;;;2.47;;
73733;SDS011;62039;50.000;9.064;2023-08-17T03:17:53;2.50;;;2.27;;
73733;SDS011;62039;50.000;9.064;2023-08-17T03:20:20;2.77;;;2.00;;
73733;SDS011;62039;50.000;9.064;2023-08-17T03:22:49;2.40;;;2.20;;
73733;SDS011;62039;50.000;9.064;2023-08-17T03:25:16;3.67;;;2.30;;
73733;SDS011;62039;50.000;9.064;2023-08-17T03:27:43;2.37;;;2.10;;
73733;SDS011;62039;50.000;9.064;2023-08-17T03:30:10;3.77;;;2.50;;
73733;SDS011;62039;50.000;9.064;2023-08-17T03:32:38;2.73;;;2.53;;
73733;SDS011;62039;50.000;9.064;2023-08-17T03:35:05;2.50;;;2.30;;
73733;SDS011;62039;50.000;9.064;2023-08-17T03:37:33;2.60;;;2.10;;
73733;SDS011;62039;50.000;9.064;2023-08-17T03:40:02;2.43;;;2.20;;
73733;SDS011;62039;50.000;9.064;2023-08-17T03:42:30;2.90;;;2.30;;
73733;SDS011;62039;50.000;9.064;2023-08-17T03:44:57;2.43;;;2.23;;
73733;SDS011;62039;50.000;9.064;2023-08-17T03:47:24;3.03;;;2.40;;
73733;SDS011;62039;50.000;9.064;2023-08-17T03:49:52;2.27;;;2.07;;
73733;SDS011;62039;50.000;9.064;2023-08-17T03:52:19;3.10;;;2.37;;
73733;SDS011;62039;50.000;9.064;2023-08-17T03:54:46;2.40;;;2.20;;
73733;SDS011;62039;50.000;9.064;2023-08-17T03:57:15;2.37;;;2.17;;
73733;SDS011;62039;50.000;9.064;2023-08-17T03:59:42;3.33;;;2.50;;
73733;SDS011;62039;50.000;9.064;2023-08-17T04:02:09;2.00;;;1.90;;
73733;SDS011;62039;50.000;9.064;2023-08-17T04:04:36;2.27;;;2.10;;
73733;SDS011;62039;50.000;9.064;2023-08-17T04:07:03;2.40;;;1.90;;
73733;SDS011;62039;50.000;9.064;2023-08-17T04:09:30;2.13;;;1.93;;
73733;SDS011;62039;50.000;9.064;2023-08-17T04:11:57;2.20;;;1.90;;
73733;SDS011;62039;50.000;9.064;2023-08-17T04:14:27;3.03;;;1.90;;
73733;SDS011;62039;50.000;9.064;2023-08-17T04:16:54;2.00;;;1.80;;
73733;SDS011;62039;50.000;9.064;2023-08-17T04:19:21;3.40;;;1.90;;
73733;SDS011;62039;50.000;9.064;2023-08-17T04:21:48;2.27;;;2.07;;
73733;SDS011;62039;50.000;9.064;2023-08-17T04:24:14;2.93;;;1.80;;
73733;SDS011;62039;50.000;9.064;2023-08-17T04:26:41;4.20;;;2.20;;
73733;SDS011;62039;50.000;9.064;2023-08-17T04:29:08;2.17;;;1.90;;
73733;SDS011;62039;50.000;9.064;2023-08-17T04:31:38;3.07;;;2.00;;
73733;SDS011;62039;50.000;9.064;2023-08-17T04:34:05;2.63;;;2.20;;
73733;SDS011;62039;50.000;9.064;2023-08-17T04:36:32;2.43;;;2.23;;
73733;SDS011;62039;50.000;9.064;2023-08-17T04:38:59;2.47;;;2.03;;
73733;SDS011;62039;50.000;9.064;2023-08-17T04:41:26;4.30;;;2.30;;
73733;SDS011;62039;50.000;9.064;2023-08-17T04:43:53;2.80;;;1.97;;
73733;SDS011;62039;50.000;9.064;2023-08-17T04:46:20;2.23;;;2.03;;
73733;SDS011;62039;50.000;9.064;2023-08-17T04:48:49;2.80;;;1.87;;
73733;SDS011;62039;50.000;9.064;2023-08-17T04:51:16;3.30;;;1.83;;
73733;SDS011;62039;50.000;9.064;2023-08-17T04:53:43;2.77;;;2.17;;
73733;SDS011;62039;50.000;9.064;2023-08-17T04:56:10;4.53;;;1.80;;
73733;SDS011;62039;50.000;9.064;2023-08-17T04:58:37;4.37;;;2.30;;
73733;SDS011;62039;50.000;9.064;2023-08-17T05:01:04;1.80;;;1.70;;
73733;SDS011;62039;50.000;9.064;2023-08-17T05:03:31;2.70;;;1.80;;
73733;SDS011;62039;50.000;9.064;2023-08-17T05:06:02;2.77;;;1.47;;
73733;SDS011;62039;50.000;9.064;2023-08-17T05:08:29;1.93;;;1.60;;
73733;SDS011;62039;50.000;9.064;2023-08-17T05:10:56;2.17;;;1.40;;
73733;SDS011;62039;50.000;9.064;2023-08-17T05:13:23;1.83;;;1.30;;
73733;SDS011;62039;50.000;9.064;2023-08-17T05:15:50;1.90;;;1.40;;
73733;SDS011;62039;50.000;9.064;2023-08-17T05:18:17;1.60;;;1.50;;
73733;SDS011;62039;50.000;9.064;2023-08-17T05:20:44;3.10;;;1.70;;
73733;SDS011;62039;50.000;9.064;2023-08-17T05:23:14;1.70;;;1.43;;
73733;SDS011;62039;50.000;9.064;2023-08-17T05:25:41;2.10;;;1.60;;
73733;SDS011;62039;50.000;9.064;2023-08-17T05:28:07;1.73;;;1.40;;
73733;SDS011;62039;50.000;9.064;2023-08-17T05:30:35;2.03;;;1.43;;
73733;SDS011;62039;50.000;9.064;2023-08-17T05:33:02;1.70;;;1.33;;
73733;SDS011;62039;50.000;9.064;2023-08-17T05:35:29;1.70;;;1.60;;
73733;SDS011;62039;50.000;9.064;2023-08-17T05:37:56;2.63;;;1.50;;
73733;SDS011;62039;50.000;9.064;2023-08-17T05:40:25;3.90;;;1.77;;
73733;SDS011;62039;50.000;9.064;2023-08-17T05:42:52;1.60;;;1.50;;
73733;SDS011;62039;50.000;9.064;2023-08-17T05:45:19;1.50;;;1.20;;
73733;SDS011;62039;50.000;9.064;2023-08-17T05:47:46;2.50;;;1.20;;
73733;SDS011;62039;50.000;9.064;2023-08-17T05:50:13;1.37;;;1.27;;
73733;SDS011;62039;50.000;9.064;2023-08-17T05:52:40;1.10;;;1.00;;
73733;SDS011;62039;50.000;9.064;2023-08-17T05:55:07;1.33;;;1.07;;
73733;SDS011;62039;50.000;9.064;2023-08-17T05:57:37;1.20;;;1.00;;
73733;SDS011;62039;50.000;9.064;2023-08-17T06:00:05;1.70;;;0.97;;
73733;SDS011;62039;50.000;9.064;2023-08-17T06:02:33;0.90;;;0.90;;
73733;SDS011;62039;50.000;9.064;2023-08-17T06:05:00;1.17;;;1.10;;
73733;SDS011;62039;50.000;9.064;2023-08-17T06:07:27;1.87;;;1.33;;
73733;SDS011;62039;50.000;9.064;2023-08-17T06:09:54;1.80;;;1.70;;
73733;SDS011;62039;50.000;9.064;2023-08-17T06:12:21;2.10;;;1.90;;
73733;SDS011;62039;50.000;9.064;2023-08-17T06:14:51;1.53;;;1.43;;
73733;SDS011;62039;50.000;9.064;2023-08-17T06:17:18;2.23;;;1.90;;
73733;SDS011;62039;50.000;9.064;2023-08-17T06:19:45;1.57;;;1.47;;
73733;SDS011;62039;50.000;9.064;2023-08-17T06:22:12;2.00;;;1.80;;
73733;SDS011;62039;50.000;9.064;2023-08-17T06:24:38;3.00;;;1.70;;
73733;SDS011;62039;50.000;9.064;2023-08-17T06:27:05;2.60;;;1.87;;
73733;SDS011;62039;50.000;9.064;2023-08-17T06:29:32;3.93;;;2.10;;
73733;SDS011;62039;50.000;9.064;2023-08-17T06:32:02;2.20;;;2.00;;
73733;SDS011;62039;50.000;9.064;2023-08-17T06:34:29;2.40;;;2.20;;
73733;SDS011;62039;50.000;9.064;2023-08-17T06:36:57;2.17;;;1.90;;
73733;SDS011;62039;50.000;9.064;2023-08-17T06:39:24;2.13;;;1.93;;
73733;SDS011;62039;50.000;9.064;2023-08-17T06:41:51;2.10;;;2.00;;
73733;SDS011;62039;50.000;9.064;2023-08-17T06:44:18;2.77;;;2.20;;
73733;SDS011;62039;50.000;9.064;2023-08-17T06:46:45;2.00;;;1.90;;
73733;SDS011;62039;50.000;9.064;2023-08-17T06:49:15;2.20;;;2.00;;
73733;SDS011;62039;50.000;9.064;2023-08-17T06:51:42;3.43;;;2.50;;
73733;SDS011;62039;50.000;9.064;2023-08-17T06:54:09;2.77;;;2.57;;
73733;SDS011;62039;50.000;9.064;2023-08-17T06:56:36;4.50;;;2.60;;
73733;SDS011;62039;50.000;9.064;2023-08-17T06:59:03;2.13;;;1.93;;
73733;SDS011;62039;50.000;9.064;2023-08-17T07:01:30;2.47;;;2.27;;
73733;SDS011;62039;50.000;9.064;2023-08-17T07:03:57;2.83;;;2.53;;
73733;SDS011;62039;50.000;9.064;2023-08-17T07:06:27;2.63;;;2.43;;
73733;SDS011;62039;50.000;9.064;2023-08-17T07:08:54;2.97;;;2.73;;
73733;SDS011;62039;50.000;9.064;2023-08-17T07:11:21;2.37;;;2.17;;
73733;SDS011;62039;50.000;9.064;2023-08-17T07:13:49;2.20;;;2.07;;
73733;SDS011;62039;50.000;9.064;2023-08-17T07:16:16;2.73;;;2.53;;
73733;SDS011;62039;50.000;9.064;2023-08-17T07:18:43;2.37;;;2.17;;
73733;SDS011;62039;50.000;9.064;2023-08-17T07:21:10;2.13;;;1.93;;
73733;SDS011;62039;50.000;9.064;2023-08-17T07:23:43;2.53;;;2.00;;
73733;SDS011;62039;50.000;9.064;2023-08-17T07:26:11;2.00;;;1.90;;
73733;SDS011;62039;50.000;9.064;2023-08-17T07:28:38;2.17;;;1.97;;
73733;SDS011;62039;50.000;9.064;2023-08-17T07:31:05;2.10;;;1.90;;
73733;SDS011;62039;50.000;9.064;2023-08-17T07:33:32;1.90;;;1.80;;
73733;SDS011;62039;50.000;9.064;2023-08-17T07:35:59;2.10;;;2.00;;
73733;SDS011;62039;50.000;9.064;2023-08-17T07:38:26;2.57;;;2.13;;
73733;SDS011;62039;50.000;9.064;2023-08-17T07:40:56;1.83;;;1.73;;
73733;SDS011;62039;50.000;9.064;2023-08-17T07:43:23;2.03;;;1.90;;
73733;SDS011;62039;50.000;9.064;2023-08-17T07:45:54;1.90;;;1.53;;
73733;SDS011;62039;50.000;9.064;2023-08-17T07:48:21;2.10;;;1.90;;
73733;SDS011;62039;50.000;9.064;2023-08-17T07:50:48;1.70;;;1.60;;
73733;SDS011;62039;50.000;9.064;2023-08-17T07:53:16;1.63;;;1.53;;
73733;SDS011;62039;50.000;9.064;2023-08-17T07:55:43;1.93;;;1.70;;
73733;SDS011;62039;50.000;9.064;2023-08-17T07:58:12;1.93;;;1.83;;
73733;SDS011;62039;50.000;9.064;2023-08-17T08:00:39;1.57;;;1.47;;
73733;SDS011;62039;50.000;9.064;2023-08-17T08:03:06;2.20;;;2.00;;
73733;SDS011;62039;50.000;9.064;2023-08-17T08:05:33;1.90;;;1.80;;
73733;SDS011;62039;50.000;9.064;2023-08-17T08:08:00;1.80;;;1.70;;
73733;SDS011;62039;50.000;9.064;2023-08-17T08:10:27;2.17;;;1.80;;
73733;SDS011;62039;50.000;9.064;2023-08-17T08:12:54;1.70;;;1.60;;
73733;SDS011;62039;50.000;9.064;2023-08-17T08:15:24;1.73;;;1.63;;
73733;SDS011;62039;50.000;9.064;2023-08-17T08:17:51;2.30;;;1.70;;
73733;SDS011;62039;50.000;9.064;2023-08-17T08:20:19;1.87;;;1.77;;
73733;SDS011;62039;50.000;9.064;2023-08-17T08:22:46;2.50;;;2.30;;
73733;SDS011;62039;50.000;9.064;2023-08-17T08:25:13;3.07;;;1.77;;
73733;SDS011;62039;50.000;9.064;2023-08-17T08:27:40;1.70;;;1.60;;
73733;SDS011;62039;50.000;9.064;2023-08-17T08:30:08;1.77;;;1.67;;
73733;SDS011;62039;50.000;9.064;2023-08-17T08:32:38;1.90;;;1.80;;
73733;SDS011;62039;50.000;9.064;2023-08-17T08:35:05;1.57;;;1.43;;
73733;SDS011;62039;50.000;9.064;2023-08-17T08:37:32;1.40;;;1.30;;
73733;SDS011;62039;50.000;9.064;2023-08-17T08:39:59;1.63;;;1.53;;
73733;SDS011;62039;50.000;9.064;2023-08-17T08:42:26;1.80;;;1.53;;
73733;SDS011;62039;50.000;9.064;2023-08-17T08:44:53;2.10;;;1.77;;
73733;SDS011;62039;50.000;9.064;2023-08-17T08:47:21;2.10;;;1.97;;
73733;SDS011;62039;50.000;9.064;2023-08-17T08:49:57;2.13;;;2.03;;
73733;SDS011;62039;50.000;9.064;2023-08-17T08:52:28;1.73;;;1.40;;
73733;SDS011;62039;50.000;9.064;2023-08-17T08:55:02;1.90;;;1.80;;
73733;SDS011;62039;50.000;9.064;2023-08-17T08:57:33;2.73;;;1.73;;
73733;SDS011;62039;50.000;9.064;2023-08-17T09:00:01;1.63;;;1.53;;
73733;SDS011;62039;50.000;9.064;2023-08-17T09:02:28;1.77;;;1.67;;
73733;SDS011;62039;50.000;9.064;2023-08-17T09:04:58;2.53;;;1.50;;
73733;SDS011;62039;50.000;9.064;2023-08-17T09:07:26;2.53;;;2.03;;
73733;SDS011;62039;50.000;9.064;2023-08-17T09:09:55;1.87;;;1.77;;
73733;SDS011;62039;50.000;9.064;2023-08-17T09:12:22;1.90;;;1.70;;
73733;SDS011;62039;50.000;9.064;2023-08-17T09:15:06;1.70;;;1.60;;
73733;SDS011;62039;50.000;9.064;2023-08-17T09:17:33;2.80;;;1.73;;
73733;SDS011;62039;50.000;9.064;2023-08-17T09:20:03;1.70;;;1.60;;
73733;SDS011;62039;50.000;9.064;2023-08-17T09:22:36;1.73;;;1.57;;
73733;SDS011;62039;50.000;9.064;2023-08-17T09:25:05;1.50;;;1.40;;
73733;SDS011;62039;50.000;9.064;2023-08-17T09:27:32;1.80;;;1.70;;
73733;SDS011;62039;50.000;9.064;2023-08-17T09:30:03;2.50;;;1.80;;
73733;SDS011;62039;50.000;9.064;2023-08-17T09:32:31;1.60;;;1.50;;
73733;SDS011;62039;50.000;9.064;2023-08-17T09:35:03;1.60;;;1.50;;
73733;SDS011;62039;50.000;9.064;2023-08-17T09:37:30;1.93;;;1.83;;
73733;SDS011;62039;50.000;9.064;2023-08-17T09:39:58;1.70;;;1.53;;
73733;SDS011;62039;50.000;9.064;2023-08-17T09:42:25;1.47;;;1.30;;
73733;SDS011;62039;50.000;9.064;2023-08-17T09:44:52;1.50;;;1.30;;
73733;SDS011;62039;50.000;9.064;2023-08-17T09:47:19;1.30;;;1.23;;
73733;SDS011;62039;50.000;9.064;2023-08-17T09:49:48;1.57;;;1.47;;
73733;SDS011;62039;50.000;9.064;2023-08-17T09:52:18;1.60;;;1.50;;
73733;SDS011;62039;50.000;9.064;2023-08-17T09:54:45;1.40;;;1.30;;
73733;SDS011;62039;50.000;9.064;2023-08-17T09:57:13;1.40;;;1.30;;
73733;SDS011;62039;50.000;9.064;2023-08-17T09:59:40;1.83;;;1.60;;
73733;SDS011;62039;50.000;9.064;2023-08-17T10:02:10;1.87;;;1.67;;
73733;SDS011;62039;50.000;9.064;2023-08-17T10:04:44;2.67;;;1.70;;
73733;SDS011;62039;50.000;9.064;2023-08-17T10:07:14;1.40;;;1.30;;
73733;SDS011;62039;50.000;9.064;2023-08-17T10:09:45;3.23;;;1.30;;
73733;SDS011;62039;50.000;9.064;2023-08-17T10:12:19;1.63;;;1.40;;
73733;SDS011;62039;50.000;9.064;2023-08-17T10:14:51;1.50;;;1.40;;
73733;SDS011;62039;50.000;9.064;2023-08-17T10:17:25;1.60;;;1.50;;
73733;SDS011;62039;50.000;9.064;2023-08-17T10:19:54;1.87;;;1.60;;
73733;SDS011;62039;50.000;9.064;2023-08-17T10:22:26;1.73;;;1.40;;
73733;SDS011;62039;50.000;9.064;2023-08-17T10:24:57;1.50;;;1.40;;
73733;SDS011;62039;50.000;9.064;2023-08-17T10:27:26;1.90;;;1.43;;
73733;SDS011;62039;50.000;9.064;2023-08-17T10:29:54;1.57;;;1.47;;
73733;SDS011;62039;50.000;9.064;2023-08-17T10:32:22;2.20;;;1.53;;
73733;SDS011;62039;50.000;9.064;2023-08-17T10:34:50;1.57;;;1.40;;
73733;SDS011;62039;50.000;9.064;2023-08-17T10:37:18;1.50;;;1.40;;
73733;SDS011;62039;50.000;9.064;2023-08-17T10:39:49;1.30;;;1.20;;
73733;SDS011;62039;50.000;9.064;2023-08-17T10:42:19;2.37;;;1.70;;
73733;SDS011;62039;50.000;9.064;2023-08-17T10:44:56;2.60;;;1.63;;
73733;SDS011;62039;50.000;9.064;2023-08-17T10:47:23;1.40;;;1.30;;
73733;SDS011;62039;50.000;9.064;2023-08-17T10:49:52;1.70;;;1.60;;
73733;SDS011;62039;50.000;9.064;2023-08-17T10:52:25;1.40;;;1.30;;
73733;SDS011;62039;50.000;9.064;2023-08-17T10:54:57;2.50;;;1.60;;
73733;SDS011;62039;50.000;9.064;2023-08-17T10:57:29;1.60;;;1.50;;
73733;SDS011;62039;50.000;9.064;2023-08-17T11:00:14;1.63;;;1.53;;
73733;SDS011;62039;50.000;9.064;2023-08-17T11:02:45;2.30;;;1.57;;
73733;SDS011;62039;50.000;9.064;2023-08-17T11:08:09;1.63;;;1.50;;
73733;SDS011;62039;50.000;9.064;2023-08-17T11:10:40;1.50;;;1.40;;
73733;SDS011;62039;50.000;9.064;2023-08-17T11:13:13;1.73;;;1.63;;
73733;SDS011;62039;50.000;9.064;2023-08-17T11:15:41;1.40;;;1.30;;
73733;SDS011;62039;50.000;9.064;2023-08-17T11:18:09;1.40;;;1.30;;
73733;SDS011;62039;50.000;9.064;2023-08-17T11:20:37;1.40;;;1.30;;
73733;SDS011;62039;50.000;9.064;2023-08-17T11:23:05;1.43;;;1.33;;
73733;SDS011;62039;50.000;9.064;2023-08-17T11:25:33;1.50;;;1.40;;
73733;SDS011;62039;50.000;9.064;2023-08-17T11:28:03;1.60;;;1.50;;
73733;SDS011;62039;50.000;9.064;2023-08-17T11:30:33;1.53;;;1.43;;
73733;SDS011;62039;50.000;9.064;2023-08-17T11:33:00;1.83;;;1.63;;
73733;SDS011;62039;50.000;9.064;2023-08-17T11:35:28;1.57;;;1.47;;
73733;SDS011;62039;50.000;9.064;2023-08-17T11:37:55;1.40;;;1.30;;
73733;SDS011;62039;50.000;9.064;2023-08-17T11:40:22;2.00;;;1.60;;
73733;SDS011;62039;50.000;9.064;2023-08-17T11:42:49;1.70;;;1.40;;
73733;SDS011;62039;50.000;9.064;2023-08-17T11:45:19;1.60;;;1.50;;
73733;SDS011;62039;50.000;9.064;2023-08-17T11:47:46;1.47;;;1.37;;
73733;SDS011;62039;50.000;9.064;2023-08-17T11:50:14;1.80;;;1.70;;
73733;SDS011;62039;50.000;9.064;2023-08-17T11:52:46;1.60;;;1.50;;
73733;SDS011;62039;50.000;9.064;2023-08-17T11:55:15;2.20;;;1.60;;
73733;SDS011;62039;50.000;9.064;2023-08-17T11:57:43;1.90;;;1.80;;
73733;SDS011;62039;50.000;9.064;2023-08-17T12:00:16;2.20;;;2.00;;
73733;SDS011;62039;50.000;9.064;2023-08-17T12:02:47;1.53;;;1.43;;
73733;SDS011;62039;50.000;9.064;2023-08-17T12:05:18;2.40;;;2.20;;
73733;SDS011;62039;50.000;9.064;2023-08-17T12:07:46;1.80;;;1.70;;
73733;SDS011;62039;50.000;9.064;2023-08-17T12:10:13;2.20;;;1.80;;
73733;SDS011;62039;50.000;9.064;2023-08-17T12:12:40;1.93;;;1.80;;
73733;SDS011;62039;50.000;9.064;2023-08-17T12:15:09;1.90;;;1.80;;
73733;SDS011;62039;50.000;9.064;2023-08-17T12:17:39;2.00;;;1.90;;
73733;SDS011;62039;50.000;9.064;2023-08-17T12:20:14;1.97;;;1.77;;
73733;SDS011;62039;50.000;9.064;2023-08-17T12:22:42;1.90;;;1.80;;
73733;SDS011;62039;50.000;9.064;2023-08-17T12:25:09;2.93;;;1.90;;
73733;SDS011;62039;50.000;9.064;2023-08-17T12:27:36;2.43;;;1.97;;
73733;SDS011;62039;50.000;9.064;2023-08-17T12:30:03;1.60;;;1.50;;
73733;SDS011;62039;50.000;9.064;2023-08-17T12:32:31;1.90;;;1.80;;
73733;SDS011;62039;50.000;9.064;2023-08-17T12:35:01;2.10;;;1.90;;
73733;SDS011;62039;50.000;9.064;2023-08-17T12:37:28;1.83;;;1.73;;
73733;SDS011;62039;50.000;9.064;2023-08-17T12:39:55;2.20;;;1.60;;
73733;SDS011;62039;50.000;9.064;2023-08-17T12:42:21;1.90;;;1.80;;
73733;SDS011;62039;50.000;9.064;2023-08-17T12:44:48;1.77;;;1.67;;
73733;SDS011;62039;50.000;9.064;2023-08-17T12:47:15;1.87;;;1.53;;
73733;SDS011;62039;50.000;9.064;2023-08-17T12:49:42;2.07;;;1.70;;
73733;SDS011;62039;50.000;9.064;2023-08-17T12:52:12;1.57;;;1.47;;
73733;SDS011;62039;50.000;9.064;2023-08-17T12:54:39;1.90;;;1.60;;
73733;SDS011;62039;50.000;9.064;2023-08-17T12:57:06;1.77;;;1.67;;
73733;SDS011;62039;50.000;9.064;2023-08-17T12:59:38;1.70;;;1.60;;
73733;SDS011;62039;50.000;9.064;2023-08-17T13:02:05;1.97;;;1.70;;
73733;SDS011;62039;50.000;9.064;2023-08-17T13:04:32;1.43;;;1.33;;
73733;SDS011;62039;50.000;9.064;2023-08-17T13:06:59;1.97;;;1.80;;
73733;SDS011;62039;50.000;9.064;2023-08-17T13:09:28;2.43;;;1.70;;
73733;SDS011;62039;50.000;9.064;2023-08-17T13:11:55;2.50;;;1.77;;
73733;SDS011;62039;50.000;9.064;2023-08-17T13:14:22;1.50;;;1.40;;
73733;SDS011;62039;50.000;9.064;2023-08-17T13:16:49;1.60;;;1.50;;
73733;SDS011;62039;50.000;9.064;2023-08-17T13:19:17;2.73;;;1.80;;
73733;SDS011;62039;50.000;9.064;2023-08-17T13:21:44;1.70;;;1.60;;
73733;SDS011;62039;50.000;9.064;2023-08-17T13:24:11;1.50;;;1.40;;
73733;SDS011;62039;50.000;9.064;2023-08-17T13:26:41;1.80;;;1.70;;
73733;SDS011;62039;50.000;9.064;2023-08-17T13:29:11;1.73;;;1.63;;
73733;SDS011;62039;50.000;9.064;2023-08-17T13:31:38;1.63;;;1.53;;
73733;SDS011;62039;50.000;9.064;2023-08-17T13:34:05;1.50;;;1.40;;
73733;SDS011;62039;50.000;9.064;2023-08-17T13:36:32;1.70;;;1.60;;
73733;SDS011;62039;50.000;9.064;2023-08-17T13:38:59;1.60;;;1.30;;
73733;SDS011;62039;50.000;9.064;2023-08-17T13:41:26;1.50;;;1.40;;
73733;SDS011;62039;50.000;9.064;2023-08-17T13:43:56;2.43;;;1.43;;
73733;SDS011;62039;50.000;9.064;2023-08-17T13:46:26;2.30;;;1.40;;
73733;SDS011;62039;50.000;9.064;2023-08-17T13:48:53;3.17;;;1.80;;
73733;SDS011;62039;50.000;9.064;2023-08-17T13:51:20;1.50;;;1.40;;
73733;SDS011;62039;50.000;9.064;2023-08-17T13:53:47;1.90;;;1.63;;
73733;SDS011;62039;50.000;9.064;2023-08-17T13:56:14;1.70;;;1.60;;
73733;SDS011;62039;50.000;9.064;2023-08-17T13:58:41;1.60;;;1.23;;
73733;SDS011;62039;50.000;9.064;2023-08-17T14:01:10;1.90;;;1.67;;
73733;SDS011;62039;50.000;9.064;2023-08-17T14:03:37;1.37;;;1.27;;
73733;SDS011;62039;50.000;9.064;2023-08-17T14:06:04;1.30;;;1.20;;
73733;SDS011;62039;50.000;9.064;2023-08-17T14:08:31;2.03;;;1.43;;
73733;SDS011;62039;50.000;9.064;2023-08-17T14:10:58;1.30;;;1.20;;
73733;SDS011;62039;50.000;9.064;2023-08-17T14:13:26;1.47;;;1.37;;
73733;SDS011;62039;50.000;9.064;2023-08-17T14:15:53;1.50;;;1.40;;
73733;SDS011;62039;50.000;9.064;2023-08-17T14:18:23;1.83;;;1.27;;
73733;SDS011;62039;50.000;9.064;2023-08-17T14:20:50;1.30;;;1.20;;
73733;SDS011;62039;50.000;9.064;2023-08-17T14:23:17;1.50;;;1.23;;
73733;SDS011;62039;50.000;9.064;2023-08-17T14:25:44;1.63;;;1.30;;
73733;SDS011;62039;50.000;9.064;2023-08-17T14:28:11;1.40;;;1.30;;
73733;SDS011;62039;50.000;9.064;2023-08-17T14:30:38;1.23;;;1.13;;
73733;SDS011;62039;50.000;9.064;2023-08-17T14:33:05;1.20;;;1.10;;
73733;SDS011;62039;50.000;9.064;2023-08-17T14:35:35;1.30;;;1.20;;
73733;SDS011;62039;50.000;9.064;2023-08-17T14:38:02;1.40;;;1.30;;
73733;SDS011;62039;50.000;9.064;2023-08-17T14:40:29;1.70;;;1.57;;
73733;SDS011;62039;50.000;9.064;2023-08-17T14:42:56;1.40;;;1.30;;
73733;SDS011;62039;50.000;9.064;2023-08-17T14:45:23;1.10;;;1.10;;
73733;SDS011;62039;50.000;9.064;2023-08-17T14:47:50;1.30;;;1.20;;
73733;SDS011;62039;50.000;9.064;2023-08-17T14:50:17;1.40;;;1.27;;
73733;SDS011;62039;50.000;9.064;2023-08-17T14:52:47;1.47;;;1.30;;
73733;SDS011;62039;50.000;9.064;2023-08-17T14:55:14;1.33;;;1.23;;